sensor_id;sensor_type;location;lat;lon;timestamp;pressure;altitude;pressure_sealevel;temperature;humidity
56340;BME280;42243;42.644;23.366;2023-05-24T00:00:09;94350.63;;;14.95;65.77
56340;BME280;42243;42.644;23.366;2023-05-24T00:02:38;94291.81;;;14.56;65.82
56340;BME280;42243;42.644;23.366;2023-05-24T00:05:08;94343.78;;;14.82;66.29
56340;BME280;42243;42.644;23.366;2023-05-24T00:07:35;94345.94;;;14.86;66.54
56340;BME280;42243;42.644;23.366;2023-05-24T00:10:01;94216.69;;;14.02;66.19
56340;BME280;42243;42.644;23.366;2023-05-24T00:12:27;94222.84;;;13.96;67.04
56340;BME280;42243;42.644;23.366;2023-05-24T00:14:52;94276.50;;;14.29;67.68
56340;BME280;42243;42.644;23.366;2023-05-24T00:17:18;94082.28;;;12.96;67.85
56340;BME280;42243;42.644;23.366;2023-05-24T00:19:43;94253.84;;;13.99;68.00
56340;BME280;42243;42.644;23.366;2023-05-24T00:22:09;94283.00;;;14.15;68.27
56340;BME280;42243;42.644;23.366;2023-05-24T00:24:35;94301.72;;;14.30;68.74
56340;BME280;42243;42.644;23.366;2023-05-24T00:27:01;94329.91;;;14.70;67.67
56340;BME280;42243;42.644;23.366;2023-05-24T00:29:26;94341.19;;;14.59;67.88
56340;BME280;42243;42.644;23.366;2023-05-24T00:31:52;94345.06;;;14.56;67.84
56340;BME280;42243;42.644;23.366;2023-05-24T00:34:17;94263.63;;;13.69;69.64
56340;BME280;42243;42.644;23.366;2023-05-24T00:36:43;94254.59;;;13.53;70.06
56340;BME280;42243;42.644;23.366;2023-05-24T00:39:08;94275.69;;;13.70;70.07
56340;BME280;42243;42.644;23.366;2023-05-24T00:41:33;94346.84;;;14.20;70.10
56340;BME280;42243;42.644;23.366;2023-05-24T00:43:59;94246.47;;;13.54;70.04
56340;BME280;42243;42.644;23.366;2023-05-24T00:46:29;94341.16;;;14.12;70.18
56340;BME280;42243;42.644;23.366;2023-05-24T00:48:56;94320.38;;;13.98;70.18
56340;BME280;42243;42.644;23.366;2023-05-24T00:51:22;94318.31;;;14.00;70.18
56340;BME280;42243;42.644;23.366;2023-05-24T00:53:48;94337.38;;;14.08;70.70
56340;BME280;42243;42.644;23.366;2023-05-24T00:56:15;94209.59;;;13.32;70.14
56340;BME280;42243;42.644;23.366;2023-05-24T00:58:41;94310.47;;;14.00;70.40
56340;BME280;42243;42.644;23.366;2023-05-24T01:01:07;94224.97;;;13.40;70.77
56340;BME280;42243;42.644;23.366;2023-05-24T01:03:33;94347.41;;;14.11;71.13
56340;BME280;42243;42.644;23.366;2023-05-24T01:06:03;94283.19;;;13.66;70.88
56340;BME280;42243;42.644;23.366;2023-05-24T01:25:44;94352.63;;;13.87;71.73
56340;BME280;42243;42.644;23.366;2023-05-24T01:28:11;94287.31;;;13.13;72.13
56340;BME280;42243;42.644;23.366;2023-05-24T01:30:39;94302.31;;;13.06;72.95
56340;BME280;42243;42.644;23.366;2023-05-24T01:33:05;94329.50;;;12.87;74.18
56340;BME280;42243;42.644;23.366;2023-05-24T01:35:31;94338.72;;;12.89;74.14
56340;BME280;42243;42.644;23.366;2023-05-24T01:37:58;94317.16;;;12.75;74.33
56340;BME280;42243;42.644;23.366;2023-05-24T01:40:24;94331.72;;;13.01;73.80
56340;BME280;42243;42.644;23.366;2023-05-24T01:43:02;94252.34;;;12.59;73.68
56340;BME280;42243;42.644;23.366;2023-05-24T01:45:40;94279.28;;;12.96;73.22
56340;BME280;42243;42.644;23.366;2023-05-24T01:48:45;94351.47;;;13.53;72.86
56340;BME280;42243;42.644;23.366;2023-05-24T01:51:06;94354.53;;;13.50;73.12
56340;BME280;42243;42.644;23.366;2023-05-24T01:53:35;94348.91;;;13.65;72.09
56340;BME280;42243;42.644;23.366;2023-05-24T01:56:04;94359.50;;;13.70;72.07
56340;BME280;42243;42.644;23.366;2023-05-24T01:58:31;94280.84;;;13.16;71.75
56340;BME280;42243;42.644;23.366;2023-05-24T02:00:57;94327.09;;;13.52;71.44
56340;BME280;42243;42.644;23.366;2023-05-24T02:03:23;94341.31;;;13.75;71.10
56340;BME280;42243;42.644;23.366;2023-05-24T02:05:49;94249.13;;;12.94;71.19
56340;BME280;42243;42.644;23.366;2023-05-24T02:08:15;94350.84;;;13.69;71.63
56340;BME280;42243;42.644;23.366;2023-05-24T02:10:40;94324.34;;;13.47;71.93
56340;BME280;42243;42.644;23.366;2023-05-24T02:13:06;94351.97;;;13.61;72.02
56340;BME280;42243;42.644;23.366;2023-05-24T02:15:32;94300.97;;;13.34;71.61
56340;BME280;42243;42.644;23.366;2023-05-24T02:17:59;94163.34;;;12.35;71.96
56340;BME280;42243;42.644;23.366;2023-05-24T02:20:26;94251.03;;;12.87;72.19
56340;BME280;42243;42.644;23.366;2023-05-24T02:22:57;94318.84;;;13.37;72.12
56340;BME280;42243;42.644;23.366;2023-05-24T02:25:24;94276.25;;;13.30;71.68
56340;BME280;42243;42.644;23.366;2023-05-24T02:27:49;94338.09;;;13.73;71.13
56340;BME280;42243;42.644;23.366;2023-05-24T02:30:15;94235.69;;;12.90;71.73
56340;BME280;42243;42.644;23.366;2023-05-24T02:32:40;94342.06;;;13.63;71.60
56340;BME280;42243;42.644;23.366;2023-05-24T02:35:06;94254.94;;;12.96;71.58
56340;BME280;42243;42.644;23.366;2023-05-24T02:37:32;94347.59;;;13.55;71.50
56340;BME280;42243;42.644;23.366;2023-05-24T02:39:57;94249.56;;;12.91;72.01
56340;BME280;42243;42.644;23.366;2023-05-24T02:42:22;94256.44;;;12.73;72.53
56340;BME280;42243;42.644;23.366;2023-05-24T02:44:48;94293.44;;;13.07;72.53
56340;BME280;42243;42.644;23.366;2023-05-24T02:47:17;94280.44;;;13.00;72.12
56340;BME280;42243;42.644;23.366;2023-05-24T02:49:42;94324.81;;;13.26;72.13
56340;BME280;42243;42.644;23.366;2023-05-24T02:52:07;94248.28;;;12.81;71.56
56340;BME280;42243;42.644;23.366;2023-05-24T02:54:33;94344.94;;;13.43;71.46
56340;BME280;42243;42.644;23.366;2023-05-24T02:56:58;94307.06;;;13.28;70.88
56340;BME280;42243;42.644;23.366;2023-05-24T02:59:24;94343.69;;;13.46;71.20
56340;BME280;42243;42.644;23.366;2023-05-24T03:01:49;94281.38;;;13.06;71.27
56340;BME280;42243;42.644;23.366;2023-05-24T03:04:15;94276.84;;;13.13;71.00
56340;BME280;42243;42.644;23.366;2023-05-24T03:06:40;94208.47;;;12.61;71.12
56340;BME280;42243;42.644;23.366;2023-05-24T03:09:06;94285.78;;;13.06;71.75
56340;BME280;42243;42.644;23.366;2023-05-24T03:11:31;94268.44;;;12.93;71.43
56340;BME280;42243;42.644;23.366;2023-05-24T03:13:57;94222.78;;;12.58;71.62
56340;BME280;42243;42.644;23.366;2023-05-24T03:16:22;94247.69;;;12.61;71.72
56340;BME280;42243;42.644;23.366;2023-05-24T03:18:47;94363.78;;;13.34;71.99
56340;BME280;42243;42.644;23.366;2023-05-24T03:21:18;94364.25;;;12.07;76.63
56340;BME280;42243;42.644;23.366;2023-05-24T03:23:44;94260.03;;;11.41;76.82
56340;BME280;42243;42.644;23.366;2023-05-24T03:26:10;94332.06;;;11.81;77.27
56340;BME280;42243;42.644;23.366;2023-05-24T03:28:37;94318.34;;;11.92;76.68
56340;BME280;42243;42.644;23.366;2023-05-24T03:31:03;94335.34;;;12.27;75.83
56340;BME280;42243;42.644;23.366;2023-05-24T03:33:28;94333.09;;;12.49;74.77
56340;BME280;42243;42.644;23.366;2023-05-24T03:35:54;94354.56;;;12.76;73.87
56340;BME280;42243;42.644;23.366;2023-05-24T03:38:19;94367.00;;;12.99;73.72
56340;BME280;42243;42.644;23.366;2023-05-24T03:40:45;94299.28;;;12.72;73.45
56340;BME280;42243;42.644;23.366;2023-05-24T03:43:10;94294.41;;;12.94;71.81
56340;BME280;42243;42.644;23.366;2023-05-24T03:45:36;94299.38;;;13.14;71.01
56340;BME280;42243;42.644;23.366;2023-05-24T03:48:01;94238.13;;;12.55;71.34
56340;BME280;42243;42.644;23.366;2023-05-24T03:50:27;94373.97;;;13.42;72.04
56340;BME280;42243;42.644;23.366;2023-05-24T03:52:52;94221.22;;;12.57;72.00
56340;BME280;42243;42.644;23.366;2023-05-24T03:55:18;94281.81;;;13.03;71.35
56340;BME280;42243;42.644;23.366;2023-05-24T03:57:43;94260.25;;;12.89;71.20
56340;BME280;42243;42.644;23.366;2023-05-24T04:00:09;94305.78;;;13.18;71.38
56340;BME280;42243;42.644;23.366;2023-05-24T04:02:35;94344.09;;;13.61;71.03
56340;BME280;42243;42.644;23.366;2023-05-24T04:05:04;94383.13;;;13.81;70.94
56340;BME280;42243;42.644;23.366;2023-05-24T04:07:37;94343.53;;;13.59;71.01
56340;BME280;42243;42.644;23.366;2023-05-24T04:10:04;94316.84;;;13.51;70.32
56340;BME280;42243;42.644;23.366;2023-05-24T04:12:29;94307.84;;;13.47;68.93
56340;BME280;42243;42.644;23.366;2023-05-24T04:14:56;94385.56;;;14.07;68.72
56340;BME280;42243;42.644;23.366;2023-05-24T04:17:21;94388.09;;;14.25;68.48
56340;BME280;42243;42.644;23.366;2023-05-24T04:19:49;94382.66;;;14.38;67.42
56340;BME280;42243;42.644;23.366;2023-05-24T04:22:15;94292.91;;;13.89;66.80
56340;BME280;42243;42.644;23.366;2023-05-24T04:24:45;94390.34;;;14.63;66.03
56340;BME280;42243;42.644;23.366;2023-05-24T04:27:11;94252.00;;;13.65;66.16
56340;BME280;42243;42.644;23.366;2023-05-24T04:29:38;94344.69;;;14.29;66.33
56340;BME280;42243;42.644;23.366;2023-05-24T04:32:04;94342.88;;;14.30;66.48
56340;BME280;42243;42.644;23.366;2023-05-24T04:34:30;94369.47;;;14.57;66.17
56340;BME280;42243;42.644;23.366;2023-05-24T04:36:58;94365.00;;;14.57;66.27
56340;BME280;42243;42.644;23.366;2023-05-24T04:39:24;94312.31;;;14.23;66.05
56340;BME280;42243;42.644;23.366;2023-05-24T04:41:49;94392.03;;;14.81;65.55
56340;BME280;42243;42.644;23.366;2023-05-24T04:44:17;94246.91;;;13.93;65.55
56340;BME280;42243;42.644;23.366;2023-05-24T04:46:43;94403.09;;;14.95;65.47
56340;BME280;42243;42.644;23.366;2023-05-24T04:49:08;94378.34;;;14.79;65.57
56340;BME280;42243;42.644;23.366;2023-05-24T04:51:34;94407.31;;;15.08;65.50
56340;BME280;42243;42.644;23.366;2023-05-24T04:54:05;94405.25;;;15.10;65.75
56340;BME280;42243;42.644;23.366;2023-05-24T04:56:35;94263.88;;;14.26;64.93
56340;BME280;42243;42.644;23.366;2023-05-24T04:59:03;94332.25;;;14.83;64.10
56340;BME280;42243;42.644;23.366;2023-05-24T05:01:30;94392.78;;;15.29;64.21
56340;BME280;42243;42.644;23.366;2023-05-24T05:03:55;94184.78;;;14.06;64.64
56340;BME280;42243;42.644;23.366;2023-05-24T05:06:21;94272.63;;;14.67;64.14
56340;BME280;42243;42.644;23.366;2023-05-24T05:08:46;94389.66;;;15.44;64.19
56340;BME280;42243;42.644;23.366;2023-05-24T05:11:13;94403.28;;;15.70;63.90
56340;BME280;42243;42.644;23.366;2023-05-24T05:13:38;94411.72;;;15.72;63.96
56340;BME280;42243;42.644;23.366;2023-05-24T05:16:04;94424.41;;;16.03;63.88
56340;BME280;42243;42.644;23.366;2023-05-24T05:18:30;94437.03;;;16.18;64.02
56340;BME280;42243;42.644;23.366;2023-05-24T05:20:55;94350.22;;;15.85;62.84
56340;BME280;42243;42.644;23.366;2023-05-24T05:23:21;94386.06;;;16.36;61.75
56340;BME280;42243;42.644;23.366;2023-05-24T05:25:46;94416.72;;;16.48;61.43
56340;BME280;42243;42.644;23.366;2023-05-24T05:28:12;94421.44;;;16.46;61.33
56340;BME280;42243;42.644;23.366;2023-05-24T05:30:37;94327.63;;;16.00;60.91
56340;BME280;42243;42.644;23.366;2023-05-24T05:33:03;94390.81;;;16.39;61.96
56340;BME280;42243;42.644;23.366;2023-05-24T05:35:30;94280.94;;;15.74;61.69
56340;BME280;42243;42.644;23.366;2023-05-24T05:37:56;94363.91;;;16.32;62.18
56340;BME280;42243;42.644;23.366;2023-05-24T05:40:21;94397.03;;;16.67;61.82
56340;BME280;42243;42.644;23.366;2023-05-24T05:42:47;94387.94;;;16.75;61.57
56340;BME280;42243;42.644;23.366;2023-05-24T05:45:13;94418.56;;;18.08;59.16
56340;BME280;42243;42.644;23.366;2023-05-24T05:47:38;94405.31;;;22.18;48.92
56340;BME280;42243;42.644;23.366;2023-05-24T05:50:05;94364.38;;;26.49;39.21
56340;BME280;42243;42.644;23.366;2023-05-24T05:52:31;94406.03;;;30.09;32.26
56340;BME280;42243;42.644;23.366;2023-05-24T05:54:56;94361.66;;;32.22;28.46
56340;BME280;42243;42.644;23.366;2023-05-24T05:57:23;94359.34;;;34.63;25.07
56340;BME280;42243;42.644;23.366;2023-05-24T05:59:49;94407.84;;;36.60;22.75
56340;BME280;42243;42.644;23.366;2023-05-24T06:02:15;94351.06;;;37.63;21.08
56340;BME280;42243;42.644;23.366;2023-05-24T06:04:40;94404.41;;;39.40;19.67
56340;BME280;42243;42.644;23.366;2023-05-24T06:07:05;94354.06;;;40.13;18.79
56340;BME280;42243;42.644;23.366;2023-05-24T06:09:31;94415.34;;;41.81;17.49
56340;BME280;42243;42.644;23.366;2023-05-24T06:11:56;94416.53;;;42.97;16.31
56340;BME280;42243;42.644;23.366;2023-05-24T06:14:22;94281.59;;;42.79;15.54
56340;BME280;42243;42.644;23.366;2023-05-24T06:16:49;94418.47;;;44.69;14.70
56340;BME280;42243;42.644;23.366;2023-05-24T06:19:16;94413.56;;;45.17;14.06
56340;BME280;42243;42.644;23.366;2023-05-24T06:21:43;94420.41;;;45.09;14.40
56340;BME280;42243;42.644;23.366;2023-05-24T06:24:16;94375.75;;;45.87;13.65
56340;BME280;42243;42.644;23.366;2023-05-24T06:26:46;94403.47;;;46.71;13.26
56340;BME280;42243;42.644;23.366;2023-05-24T06:29:12;94411.28;;;47.53;12.69
56340;BME280;42243;42.644;23.366;2023-05-24T06:31:38;94365.56;;;47.78;12.46
56340;BME280;42243;42.644;23.366;2023-05-24T06:34:03;94376.47;;;48.51;12.30
56340;BME280;42243;42.644;23.366;2023-05-24T06:36:29;94411.31;;;49.15;11.86
56340;BME280;42243;42.644;23.366;2023-05-24T06:38:58;94344.84;;;49.05;11.33
56340;BME280;42243;42.644;23.366;2023-05-24T06:41:23;94372.78;;;49.79;11.06
56340;BME280;42243;42.644;23.366;2023-05-24T06:43:48;94352.00;;;50.21;11.05
56340;BME280;42243;42.644;23.366;2023-05-24T06:46:14;94355.47;;;50.77;10.37
56340;BME280;42243;42.644;23.366;2023-05-24T06:48:39;94388.25;;;51.24;10.28
56340;BME280;42243;42.644;23.366;2023-05-24T06:51:05;94396.72;;;51.63;10.02
56340;BME280;42243;42.644;23.366;2023-05-24T06:53:31;94357.31;;;51.89;10.22
56340;BME280;42243;42.644;23.366;2023-05-24T06:55:56;94374.66;;;52.08;9.85
56340;BME280;42243;42.644;23.366;2023-05-24T06:58:22;94381.22;;;52.20;9.60
56340;BME280;42243;42.644;23.366;2023-05-24T07:00:47;94374.09;;;52.58;9.55
56340;BME280;42243;42.644;23.366;2023-05-24T07:03:14;94399.66;;;53.01;9.37
56340;BME280;42243;42.644;23.366;2023-05-24T07:05:40;94391.16;;;53.40;9.22
56340;BME280;42243;42.644;23.366;2023-05-24T07:08:05;94365.06;;;52.63;9.37
56340;BME280;42243;42.644;23.366;2023-05-24T07:10:31;94352.94;;;53.25;9.89
56340;BME280;42243;42.644;23.366;2023-05-24T07:12:56;94386.06;;;53.74;8.71
56340;BME280;42243;42.644;23.366;2023-05-24T07:15:22;94380.81;;;50.33;10.53
56340;BME280;42243;42.644;23.366;2023-05-24T07:17:47;94384.19;;;52.31;9.78
56340;BME280;42243;42.644;23.366;2023-05-24T07:20:13;94355.66;;;53.05;9.57
56340;BME280;42243;42.644;23.366;2023-05-24T07:22:39;94390.75;;;54.03;9.49
56340;BME280;42243;42.644;23.366;2023-05-24T07:25:05;94381.41;;;53.85;8.82
56340;BME280;42243;42.644;23.366;2023-05-24T07:27:30;94406.66;;;52.03;9.23
56340;BME280;42243;42.644;23.366;2023-05-24T07:29:56;94391.28;;;52.86;9.19
56340;BME280;42243;42.644;23.366;2023-05-24T07:32:23;94394.69;;;53.40;8.92
56340;BME280;42243;42.644;23.366;2023-05-24T07:34:48;94383.00;;;51.84;9.78
56340;BME280;42243;42.644;23.366;2023-05-24T07:37:14;94334.25;;;51.98;10.22
56340;BME280;42243;42.644;23.366;2023-05-24T07:39:41;94395.63;;;52.33;9.78
56340;BME280;42243;42.644;23.366;2023-05-24T07:42:07;94404.16;;;52.83;9.66
56340;BME280;42243;42.644;23.366;2023-05-24T07:44:33;94338.53;;;52.23;9.51
56340;BME280;42243;42.644;23.366;2023-05-24T07:46:59;94331.44;;;52.37;9.64
56340;BME280;42243;42.644;23.366;2023-05-24T07:49:26;94384.94;;;52.71;9.71
56340;BME280;42243;42.644;23.366;2023-05-24T07:51:52;94388.66;;;52.14;9.91
56340;BME280;42243;42.644;23.366;2023-05-24T07:54:18;94350.97;;;51.64;9.73
56340;BME280;42243;42.644;23.366;2023-05-24T07:56:43;94361.84;;;50.59;10.64
56340;BME280;42243;42.644;23.366;2023-05-24T07:59:08;94382.97;;;49.42;10.99
56340;BME280;42243;42.644;23.366;2023-05-24T08:01:34;94372.31;;;48.11;12.23
56340;BME280;42243;42.644;23.366;2023-05-24T08:04:00;94344.22;;;46.63;12.37
56340;BME280;42243;42.644;23.366;2023-05-24T08:06:28;94390.53;;;44.51;13.46
56340;BME280;42243;42.644;23.366;2023-05-24T08:08:53;94231.00;;;42.26;14.38
56340;BME280;42243;42.644;23.366;2023-05-24T08:11:19;94368.56;;;41.64;16.05
56340;BME280;42243;42.644;23.366;2023-05-24T08:13:45;94346.41;;;40.89;17.09
56340;BME280;42243;42.644;23.366;2023-05-24T08:16:11;94395.66;;;40.71;17.94
56340;BME280;42243;42.644;23.366;2023-05-24T08:18:36;94381.69;;;37.12;19.65
56340;BME280;42243;42.644;23.366;2023-05-24T08:21:02;94336.28;;;35.84;19.78
56340;BME280;42243;42.644;23.366;2023-05-24T08:23:27;94330.63;;;36.91;19.31
56340;BME280;42243;42.644;23.366;2023-05-24T08:25:56;94377.97;;;36.26;18.96
56340;BME280;42243;42.644;23.366;2023-05-24T08:28:22;94385.28;;;36.86;18.96
56340;BME280;42243;42.644;23.366;2023-05-24T08:30:47;94384.19;;;35.73;18.81
56340;BME280;42243;42.644;23.366;2023-05-24T08:33:13;94327.41;;;35.38;19.30
56340;BME280;42243;42.644;23.366;2023-05-24T08:35:38;94329.03;;;35.42;19.72
56340;BME280;42243;42.644;23.366;2023-05-24T08:38:03;94374.81;;;35.70;20.47
56340;BME280;42243;42.644;23.366;2023-05-24T08:40:29;94328.44;;;35.29;20.93
56340;BME280;42243;42.644;23.366;2023-05-24T08:42:55;94324.66;;;35.34;20.79
56340;BME280;42243;42.644;23.366;2023-05-24T08:45:25;94381.03;;;35.25;20.56
56340;BME280;42243;42.644;23.366;2023-05-24T08:47:50;94337.81;;;32.24;21.83
56340;BME280;42243;42.644;23.366;2023-05-24T08:50:16;94370.81;;;33.66;21.88
56340;BME280;42243;42.644;23.366;2023-05-24T08:52:42;94328.69;;;33.01;22.21
56340;BME280;42243;42.644;23.366;2023-05-24T08:55:10;94390.94;;;31.13;22.95
56340;BME280;42243;42.644;23.366;2023-05-24T08:57:36;94309.94;;;31.80;22.50
56340;BME280;42243;42.644;23.366;2023-05-24T09:00:05;94232.78;;;28.19;24.14
56340;BME280;42243;42.644;23.366;2023-05-24T09:02:33;94374.66;;;28.24;25.70
56340;BME280;42243;42.644;23.366;2023-05-24T09:05:00;94372.09;;;30.25;24.54
56340;BME280;42243;42.644;23.366;2023-05-24T09:07:26;94324.78;;;30.24;23.75
56340;BME280;42243;42.644;23.366;2023-05-24T09:10:12;94371.81;;;29.97;23.55
56340;BME280;42243;42.644;23.366;2023-05-24T09:12:39;94378.69;;;29.00;24.47
56340;BME280;42243;42.644;23.366;2023-05-24T09:15:06;94385.13;;;30.14;23.05
56340;BME280;42243;42.644;23.366;2023-05-24T09:17:36;94345.19;;;30.04;23.53
56340;BME280;42243;42.644;23.366;2023-05-24T09:20:02;94350.59;;;29.45;24.35
56340;BME280;42243;42.644;23.366;2023-05-24T09:22:31;94342.72;;;29.99;24.10
56340;BME280;42243;42.644;23.366;2023-05-24T09:25:00;94385.34;;;28.94;25.17
56340;BME280;42243;42.644;23.366;2023-05-24T09:27:26;94381.28;;;28.35;25.62
56340;BME280;42243;42.644;23.366;2023-05-24T09:29:54;94305.88;;;29.10;25.43
56340;BME280;42243;42.644;23.366;2023-05-24T09:32:20;94370.47;;;29.52;24.32
56340;BME280;42243;42.644;23.366;2023-05-24T09:34:50;94292.78;;;28.62;24.95
56340;BME280;42243;42.644;23.366;2023-05-24T09:37:17;94277.38;;;27.05;25.91
56340;BME280;42243;42.644;23.366;2023-05-24T09:39:47;94278.13;;;26.34;25.22
56340;BME280;42243;42.644;23.366;2023-05-24T09:42:16;94353.81;;;27.86;24.77
56340;BME280;42243;42.644;23.366;2023-05-24T09:44:43;94270.78;;;28.04;23.87
56340;BME280;42243;42.644;23.366;2023-05-24T09:47:08;94304.63;;;26.22;26.11
56340;BME280;42243;42.644;23.366;2023-05-24T09:49:36;94336.81;;;25.11;27.93
56340;BME280;42243;42.644;23.366;2023-05-24T09:52:02;94370.78;;;26.62;26.88
56340;BME280;42243;42.644;23.366;2023-05-24T09:54:28;94344.22;;;26.65;26.11
56340;BME280;42243;42.644;23.366;2023-05-24T09:56:59;94351.19;;;27.06;25.11
56340;BME280;42243;42.644;23.366;2023-05-24T09:59:25;94266.38;;;27.15;25.72
56340;BME280;42243;42.644;23.366;2023-05-24T10:01:56;94342.00;;;28.22;25.51
56340;BME280;42243;42.644;23.366;2023-05-24T10:04:33;94363.16;;;28.06;24.75
56340;BME280;42243;42.644;23.366;2023-05-24T10:06:59;94362.22;;;27.53;25.85
56340;BME280;42243;42.644;23.366;2023-05-24T10:09:29;94355.91;;;25.46;28.39
56340;BME280;42243;42.644;23.366;2023-05-24T10:12:07;94354.50;;;25.63;28.61
56340;BME280;42243;42.644;23.366;2023-05-24T10:14:37;94354.84;;;26.34;28.55
56340;BME280;42243;42.644;23.366;2023-05-24T10:17:06;94342.56;;;25.46;28.92
56340;BME280;42243;42.644;23.366;2023-05-24T10:19:32;94319.03;;;24.93;29.79
56340;BME280;42243;42.644;23.366;2023-05-24T10:21:59;94258.44;;;24.05;29.58
56340;BME280;42243;42.644;23.366;2023-05-24T10:24:29;94358.34;;;25.15;29.46
56340;BME280;42243;42.644;23.366;2023-05-24T10:26:57;94338.84;;;25.97;27.54
56340;BME280;42243;42.644;23.366;2023-05-24T10:31:56;94356.84;;;27.05;29.02
56340;BME280;42243;42.644;23.366;2023-05-24T10:34:22;94318.00;;;27.07;27.44
56340;BME280;42243;42.644;23.366;2023-05-24T10:36:48;94318.25;;;27.37;26.18
56340;BME280;42243;42.644;23.366;2023-05-24T10:39:14;94352.25;;;27.28;25.79
56340;BME280;42243;42.644;23.366;2023-05-24T10:41:40;94248.63;;;24.80;27.29
56340;BME280;42243;42.644;23.366;2023-05-24T10:44:10;94323.13;;;26.18;27.51
56340;BME280;42243;42.644;23.366;2023-05-24T10:47:06;94328.78;;;26.93;27.08
56340;BME280;42243;42.644;23.366;2023-05-24T10:49:32;94313.38;;;27.39;26.02
56340;BME280;42243;42.644;23.366;2023-05-24T10:52:06;94324.13;;;26.54;27.11
56340;BME280;42243;42.644;23.366;2023-05-24T10:54:32;94326.78;;;24.75;27.47
56340;BME280;42243;42.644;23.366;2023-05-24T10:57:00;94328.03;;;24.50;27.82
56340;BME280;42243;42.644;23.366;2023-05-24T10:59:32;94323.09;;;25.32;27.37
56340;BME280;42243;42.644;23.366;2023-05-24T11:02:02;94273.69;;;25.07;26.95
56340;BME280;42243;42.644;23.366;2023-05-24T11:04:32;94298.03;;;25.69;26.02
56340;BME280;42243;42.644;23.366;2023-05-24T11:09:28;94245.06;;;24.24;29.25
56340;BME280;42243;42.644;23.366;2023-05-24T11:11:55;94308.91;;;24.29;29.85
56340;BME280;42243;42.644;23.366;2023-05-24T11:14:23;94275.34;;;24.61;28.70
56340;BME280;42243;42.644;23.366;2023-05-24T11:16:51;94315.13;;;25.68;28.84
56340;BME280;42243;42.644;23.366;2023-05-24T11:19:19;94277.53;;;25.92;28.87
56340;BME280;42243;42.644;23.366;2023-05-24T11:21:46;94309.56;;;26.15;27.99
56340;BME280;42243;42.644;23.366;2023-05-24T11:24:12;94283.09;;;26.05;28.02
56340;BME280;42243;42.644;23.366;2023-05-24T11:26:38;94314.81;;;26.43;27.31
56340;BME280;42243;42.644;23.366;2023-05-24T11:29:06;94305.34;;;26.36;27.48
56340;BME280;42243;42.644;23.366;2023-05-24T11:31:31;94239.19;;;26.19;27.05
56340;BME280;42243;42.644;23.366;2023-05-24T11:33:59;94307.72;;;26.61;28.38
56340;BME280;42243;42.644;23.366;2023-05-24T11:36:24;94301.75;;;25.82;28.62
56340;BME280;42243;42.644;23.366;2023-05-24T11:38:52;94303.81;;;26.44;27.82
56340;BME280;42243;42.644;23.366;2023-05-24T11:41:18;94244.94;;;26.35;27.97
56340;BME280;42243;42.644;23.366;2023-05-24T11:43:43;94228.13;;;25.45;28.91
56340;BME280;42243;42.644;23.366;2023-05-24T11:46:09;94159.44;;;24.17;30.16
56340;BME280;42243;42.644;23.366;2023-05-24T11:48:35;94292.13;;;24.75;29.93
56340;BME280;42243;42.644;23.366;2023-05-24T11:51:00;94267.53;;;25.48;29.12
56340;BME280;42243;42.644;23.366;2023-05-24T11:53:29;94185.47;;;25.31;28.45
56340;BME280;42243;42.644;23.366;2023-05-24T11:55:54;94181.06;;;25.49;29.25
56340;BME280;42243;42.644;23.366;2023-05-24T12:00:50;94276.09;;;25.58;29.45
56340;BME280;42243;42.644;23.366;2023-05-24T12:03:15;94271.94;;;25.02;30.10
56340;BME280;42243;42.644;23.366;2023-05-24T12:05:42;94263.94;;;25.89;28.63
56340;BME280;42243;42.644;23.366;2023-05-24T12:08:10;94233.53;;;25.53;28.63
56340;BME280;42243;42.644;23.366;2023-05-24T12:10:42;94224.78;;;24.84;28.89
56340;BME280;42243;42.644;23.366;2023-05-24T12:13:24;94217.03;;;25.51;29.61
56340;BME280;42243;42.644;23.366;2023-05-24T12:15:51;94265.63;;;25.85;28.46
56340;BME280;42243;42.644;23.366;2023-05-24T12:18:22;94267.88;;;25.69;28.92
56340;BME280;42243;42.644;23.366;2023-05-24T12:20:48;94215.53;;;25.82;29.09
56340;BME280;42243;42.644;23.366;2023-05-24T12:23:15;94271.66;;;26.58;28.42
56340;BME280;42243;42.644;23.366;2023-05-24T12:25:41;94233.34;;;26.63;28.03
56340;BME280;42243;42.644;23.366;2023-05-24T12:28:06;94261.75;;;26.90;27.62
56340;BME280;42243;42.644;23.366;2023-05-24T12:30:32;94202.50;;;26.65;27.23
56340;BME280;42243;42.644;23.366;2023-05-24T12:32:57;94193.91;;;26.77;26.62
56340;BME280;42243;42.644;23.366;2023-05-24T12:35:23;94269.47;;;26.06;28.34
56340;BME280;42243;42.644;23.366;2023-05-24T12:37:49;94116.28;;;25.21;28.75
56340;BME280;42243;42.644;23.366;2023-05-24T12:40:18;94237.13;;;25.35;30.03
56340;BME280;42243;42.644;23.366;2023-05-24T12:42:52;94231.50;;;24.95;30.24
56340;BME280;42243;42.644;23.366;2023-05-24T12:45:19;94240.78;;;25.11;30.06
56340;BME280;42243;42.644;23.366;2023-05-24T12:47:50;94245.63;;;25.37;30.61
56340;BME280;42243;42.644;23.366;2023-05-24T12:50:17;94251.66;;;25.15;29.98
56340;BME280;42243;42.644;23.366;2023-05-24T12:52:42;94255.41;;;25.28;29.20
56340;BME280;42243;42.644;23.366;2023-05-24T12:55:12;94213.50;;;25.28;29.61
56340;BME280;42243;42.644;23.366;2023-05-24T12:57:38;94219.34;;;25.89;28.94
56340;BME280;42243;42.644;23.366;2023-05-24T13:00:05;94220.00;;;26.40;29.04
56340;BME280;42243;42.644;23.366;2023-05-24T13:02:31;94180.63;;;26.01;28.88
56340;BME280;42243;42.644;23.366;2023-05-24T13:04:57;94230.31;;;25.65;29.61
56340;BME280;42243;42.644;23.366;2023-05-24T13:07:22;94235.25;;;26.17;29.55
56340;BME280;42243;42.644;23.366;2023-05-24T13:09:48;94249.22;;;26.36;29.11
56340;BME280;42243;42.644;23.366;2023-05-24T13:12:13;94140.09;;;25.98;28.53